sensor_id;sensor_type;location;lat;lon;timestamp;P1;durP1;ratioP1;P2;durP2;ratioP2
29712;SDS011;16623;53.632;10.016;2023-06-10T00:01:45;14.45;;;5.30;;
29712;SDS011;16623;53.632;10.016;2023-06-10T00:04:12;16.17;;;5.20;;
29712;SDS011;16623;53.632;10.016;2023-06-10T00:06:38;16.52;;;6.63;;
29712;SDS011;16623;53.632;10.016;2023-06-10T00:09:04;12.85;;;4.53;;
29712;SDS011;16623;53.632;10.016;2023-06-10T00:11:33;10.15;;;4.68;;
29712;SDS011;16623;53.632;10.016;2023-06-10T00:13:59;11.10;;;5.20;;
29712;SDS011;16623;53.632;10.016;2023-06-10T00:16:25;11.35;;;4.43;;
29712;SDS011;16623;53.632;10.016;2023-06-10T00:18:51;10.15;;;4.72;;
29712;SDS011;16623;53.632;10.016;2023-06-10T00:21:16;14.50;;;4.35;;
29712;SDS011;16623;53.632;10.016;2023-06-10T00:23:42;10.30;;;4.15;;
29712;SDS011;16623;53.632;10.016;2023-06-10T00:26:08;14.55;;;4.93;;
29712;SDS011;16623;53.632;10.016;2023-06-10T00:28:34;12.27;;;4.57;;
29712;SDS011;16623;53.632;10.016;2023-06-10T00:30:59;10.85;;;4.30;;
29712;SDS011;16623;53.632;10.016;2023-06-10T00:33:25;16.90;;;4.80;;
29712;SDS011;16623;53.632;10.016;2023-06-10T00:35:51;11.90;;;4.57;;
29712;SDS011;16623;53.632;10.016;2023-06-10T00:38:17;13.77;;;4.22;;
29712;SDS011;16623;53.632;10.016;2023-06-10T00:40:42;10.88;;;4.47;;
29712;SDS011;16623;53.632;10.016;2023-06-10T00:43:08;12.25;;;4.63;;
29712;SDS011;16623;53.632;10.016;2023-06-10T00:45:36;10.48;;;3.50;;
29712;SDS011;16623;53.632;10.016;2023-06-10T00:48:02;11.95;;;4.00;;
29712;SDS011;16623;53.632;10.016;2023-06-10T00:50:28;11.32;;;4.43;;
29712;SDS011;16623;53.632;10.016;2023-06-10T00:52:54;12.80;;;4.20;;
29712;SDS011;16623;53.632;10.016;2023-06-10T00:55:20;6.15;;;3.88;;
29712;SDS011;16623;53.632;10.016;2023-06-10T00:57:46;12.60;;;3.80;;
29712;SDS011;16623;53.632;10.016;2023-06-10T01:00:14;9.77;;;3.63;;
29712;SDS011;16623;53.632;10.016;2023-06-10T01:02:40;10.38;;;3.97;;
29712;SDS011;16623;53.632;10.016;2023-06-10T01:05:07;10.73;;;3.53;;
29712;SDS011;16623;53.632;10.016;2023-06-10T01:07:37;7.13;;;4.25;;
29712;SDS011;16623;53.632;10.016;2023-06-10T01:10:49;14.63;;;4.07;;
29712;SDS011;16623;53.632;10.016;2023-06-10T01:13:11;12.15;;;3.85;;
29712;SDS011;16623;53.632;10.016;2023-06-10T01:15:38;10.38;;;3.65;;
29712;SDS011;16623;53.632;10.016;2023-06-10T01:18:05;6.20;;;3.50;;
29712;SDS011;16623;53.632;10.016;2023-06-10T01:20:35;8.63;;;3.90;;
29712;SDS011;16623;53.632;10.016;2023-06-10T01:23:05;10.25;;;3.75;;
29712;SDS011;16623;53.632;10.016;2023-06-10T01:25:31;11.63;;;3.88;;
29712;SDS011;16623;53.632;10.016;2023-06-10T01:28:10;9.95;;;4.07;;
29712;SDS011;16623;53.632;10.016;2023-06-10T01:33:39;11.02;;;3.80;;
29712;SDS011;16623;53.632;10.016;2023-06-10T01:36:08;11.20;;;4.47;;
29712;SDS011;16623;53.632;10.016;2023-06-10T01:38:36;11.27;;;3.42;;
29712;SDS011;16623;53.632;10.016;2023-06-10T01:41:07;9.98;;;3.67;;
29712;SDS011;16623;53.632;10.016;2023-06-10T01:43:33;9.95;;;2.90;;
29712;SDS011;16623;53.632;10.016;2023-06-10T01:45:59;6.15;;;3.17;;
29712;SDS011;16623;53.632;10.016;2023-06-10T01:48:26;9.60;;;3.45;;
29712;SDS011;16623;53.632;10.016;2023-06-10T01:50:52;7.82;;;3.63;;
29712;SDS011;16623;53.632;10.016;2023-06-10T01:53:18;9.10;;;3.75;;
29712;SDS011;16623;53.632;10.016;2023-06-10T01:55:44;10.43;;;3.90;;
29712;SDS011;16623;53.632;10.016;2023-06-10T01:58:10;12.10;;;3.90;;
29712;SDS011;16623;53.632;10.016;2023-06-10T02:00:36;10.00;;;3.10;;
29712;SDS011;16623;53.632;10.016;2023-06-10T02:03:02;10.18;;;3.35;;
29712;SDS011;16623;53.632;10.016;2023-06-10T02:05:28;7.88;;;3.47;;
29712;SDS011;16623;53.632;10.016;2023-06-10T02:07:56;10.85;;;3.15;;
29712;SDS011;16623;53.632;10.016;2023-06-10T02:10:22;8.40;;;3.50;;
29712;SDS011;16623;53.632;10.016;2023-06-10T02:12:48;13.75;;;3.70;;
29712;SDS011;16623;53.632;10.016;2023-06-10T02:15:13;9.80;;;2.85;;
29712;SDS011;16623;53.632;10.016;2023-06-10T02:17:39;11.77;;;3.75;;
29712;SDS011;16623;53.632;10.016;2023-06-10T02:20:05;7.50;;;3.78;;
29712;SDS011;16623;53.632;10.016;2023-06-10T02:22:32;7.28;;;3.65;;
29712;SDS011;16623;53.632;10.016;2023-06-10T02:24:58;9.68;;;2.97;;
29712;SDS011;16623;53.632;10.016;2023-06-10T02:27:24;7.53;;;3.33;;
29712;SDS011;16623;53.632;10.016;2023-06-10T02:29:50;11.07;;;2.67;;
29712;SDS011;16623;53.632;10.016;2023-06-10T02:32:15;10.15;;;2.67;;
29712;SDS011;16623;53.632;10.016;2023-06-10T02:34:41;10.45;;;3.35;;
29712;SDS011;16623;53.632;10.016;2023-06-10T02:37:07;8.35;;;3.08;;
29712;SDS011;16623;53.632;10.016;2023-06-10T02:39:33;11.07;;;3.22;;
29712;SDS011;16623;53.632;10.016;2023-06-10T02:42:04;10.10;;;3.10;;
29712;SDS011;16623;53.632;10.016;2023-06-10T02:44:30;12.95;;;3.28;;
29712;SDS011;16623;53.632;10.016;2023-06-10T02:46:55;5.00;;;2.80;;
29712;SDS011;16623;53.632;10.016;2023-06-10T02:49:21;7.88;;;2.88;;
29712;SDS011;16623;53.632;10.016;2023-06-10T02:51:46;10.63;;;2.90;;
29712;SDS011;16623;53.632;10.016;2023-06-10T02:54:12;11.15;;;3.05;;
29712;SDS011;16623;53.632;10.016;2023-06-10T02:56:38;10.18;;;3.63;;
29712;SDS011;16623;53.632;10.016;2023-06-10T02:59:06;9.70;;;3.20;;
29712;SDS011;16623;53.632;10.016;2023-06-10T03:01:33;13.48;;;3.33;;
29712;SDS011;16623;53.632;10.016;2023-06-10T03:04:01;10.52;;;3.22;;
29712;SDS011;16623;53.632;10.016;2023-06-10T03:06:28;7.15;;;2.75;;
29712;SDS011;16623;53.632;10.016;2023-06-10T03:08:54;7.05;;;2.97;;
29712;SDS011;16623;53.632;10.016;2023-06-10T03:11:20;7.43;;;2.95;;
29712;SDS011;16623;53.632;10.016;2023-06-10T03:13:46;12.45;;;2.97;;
29712;SDS011;16623;53.632;10.016;2023-06-10T03:16:11;9.25;;;2.85;;
29712;SDS011;16623;53.632;10.016;2023-06-10T03:18:37;9.13;;;2.67;;
29712;SDS011;16623;53.632;10.016;2023-06-10T03:21:03;8.35;;;3.33;;
29712;SDS011;16623;53.632;10.016;2023-06-10T03:23:28;11.10;;;3.15;;
29712;SDS011;16623;53.632;10.016;2023-06-10T03:25:54;13.50;;;3.13;;
29712;SDS011;16623;53.632;10.016;2023-06-10T03:28:20;8.90;;;2.88;;
29712;SDS011;16623;53.632;10.016;2023-06-10T03:30:46;7.85;;;2.47;;
29712;SDS011;16623;53.632;10.016;2023-06-10T03:33:12;7.90;;;2.80;;
29712;SDS011;16623;53.632;10.016;2023-06-10T03:35:38;11.27;;;3.45;;
29712;SDS011;16623;53.632;10.016;2023-06-10T03:38:04;12.07;;;3.20;;
29712;SDS011;16623;53.632;10.016;2023-06-10T03:40:30;7.25;;;2.80;;
29712;SDS011;16623;53.632;10.016;2023-06-10T03:42:56;10.75;;;3.13;;
29712;SDS011;16623;53.632;10.016;2023-06-10T03:45:22;8.10;;;2.78;;
29712;SDS011;16623;53.632;10.016;2023-06-10T03:47:51;9.95;;;3.17;;
29712;SDS011;16623;53.632;10.016;2023-06-10T03:50:16;8.00;;;2.75;;
29712;SDS011;16623;53.632;10.016;2023-06-10T03:52:42;9.45;;;2.83;;
29712;SDS011;16623;53.632;10.016;2023-06-10T03:55:09;6.18;;;2.65;;
29712;SDS011;16623;53.632;10.016;2023-06-10T03:57:36;14.38;;;4.32;;
29712;SDS011;16623;53.632;10.016;2023-06-10T04:00:02;7.93;;;2.85;;
29712;SDS011;16623;53.632;10.016;2023-06-10T04:02:33;12.52;;;3.25;;
29712;SDS011;16623;53.632;10.016;2023-06-10T04:04:59;9.30;;;2.65;;
29712;SDS011;16623;53.632;10.016;2023-06-10T04:07:25;8.15;;;2.95;;
29712;SDS011;16623;53.632;10.016;2023-06-10T04:09:50;11.82;;;3.30;;
29712;SDS011;16623;53.632;10.016;2023-06-10T04:12:16;7.40;;;2.72;;
29712;SDS011;16623;53.632;10.016;2023-06-10T04:14:41;15.23;;;3.22;;
29712;SDS011;16623;53.632;10.016;2023-06-10T04:17:08;11.95;;;2.70;;
29712;SDS011;16623;53.632;10.016;2023-06-10T04:19:35;7.28;;;2.80;;
29712;SDS011;16623;53.632;10.016;2023-06-10T04:22:01;9.32;;;3.15;;
29712;SDS011;16623;53.632;10.016;2023-06-10T04:24:30;8.18;;;3.08;;
29712;SDS011;16623;53.632;10.016;2023-06-10T04:26:55;8.98;;;2.83;;
29712;SDS011;16623;53.632;10.016;2023-06-10T04:29:21;8.63;;;3.70;;
29712;SDS011;16623;53.632;10.016;2023-06-10T04:31:47;9.32;;;3.58;;
29712;SDS011;16623;53.632;10.016;2023-06-10T04:34:13;7.93;;;2.45;;
29712;SDS011;16623;53.632;10.016;2023-06-10T04:36:39;16.17;;;3.33;;
29712;SDS011;16623;53.632;10.016;2023-06-10T04:39:05;8.10;;;2.70;;
29712;SDS011;16623;53.632;10.016;2023-06-10T04:41:31;10.38;;;3.20;;
29712;SDS011;16623;53.632;10.016;2023-06-10T04:43:56;15.43;;;3.63;;
29712;SDS011;16623;53.632;10.016;2023-06-10T04:46:22;6.70;;;2.92;;
29712;SDS011;16623;53.632;10.016;2023-06-10T04:48:49;9.40;;;3.00;;
29712;SDS011;16623;53.632;10.016;2023-06-10T04:51:14;14.07;;;3.60;;
29712;SDS011;16623;53.632;10.016;2023-06-10T04:53:40;8.68;;;3.53;;
29712;SDS011;16623;53.632;10.016;2023-06-10T04:56:06;12.57;;;3.10;;
29712;SDS011;16623;53.632;10.016;2023-06-10T04:58:33;9.50;;;2.85;;
29712;SDS011;16623;53.632;10.016;2023-06-10T05:00:58;5.47;;;2.53;;
29712;SDS011;16623;53.632;10.016;2023-06-10T05:03:24;8.95;;;2.85;;
29712;SDS011;16623;53.632;10.016;2023-06-10T05:05:51;9.10;;;2.65;;
29712;SDS011;16623;53.632;10.016;2023-06-10T05:08:16;11.32;;;2.47;;
29712;SDS011;16623;53.632;10.016;2023-06-10T05:10:42;13.00;;;3.08;;
29712;SDS011;16623;53.632;10.016;2023-06-10T05:13:07;7.82;;;2.60;;
29712;SDS011;16623;53.632;10.016;2023-06-10T05:15:33;10.07;;;2.95;;
29712;SDS011;16623;53.632;10.016;2023-06-10T05:17:58;14.27;;;3.60;;
29712;SDS011;16623;53.632;10.016;2023-06-10T05:20:24;9.52;;;2.55;;
29712;SDS011;16623;53.632;10.016;2023-06-10T05:22:50;10.35;;;2.30;;
29712;SDS011;16623;53.632;10.016;2023-06-10T05:25:16;9.40;;;2.35;;
29712;SDS011;16623;53.632;10.016;2023-06-10T05:27:42;7.80;;;2.65;;
29712;SDS011;16623;53.632;10.016;2023-06-10T05:30:10;8.68;;;2.55;;
29712;SDS011;16623;53.632;10.016;2023-06-10T05:32:36;11.38;;;2.75;;
29712;SDS011;16623;53.632;10.016;2023-06-10T05:35:01;7.13;;;2.80;;
29712;SDS011;16623;53.632;10.016;2023-06-10T05:37:28;9.10;;;3.00;;
29712;SDS011;16623;53.632;10.016;2023-06-10T05:39:56;8.55;;;2.58;;
29712;SDS011;16623;53.632;10.016;2023-06-10T05:42:21;11.32;;;3.03;;
29712;SDS011;16623;53.632;10.016;2023-06-10T05:44:47;8.55;;;2.25;;
29712;SDS011;16623;53.632;10.016;2023-06-10T05:47:12;9.80;;;3.17;;
29712;SDS011;16623;53.632;10.016;2023-06-10T05:49:38;4.53;;;2.10;;
29712;SDS011;16623;53.632;10.016;2023-06-10T05:52:10;7.53;;;2.28;;
29712;SDS011;16623;53.632;10.016;2023-06-10T05:54:35;10.43;;;2.60;;
29712;SDS011;16623;53.632;10.016;2023-06-10T05:57:01;19.85;;;2.67;;
29712;SDS011;16623;53.632;10.016;2023-06-10T05:59:26;9.60;;;1.90;;
29712;SDS011;16623;53.632;10.016;2023-06-10T06:01:52;8.00;;;2.47;;
29712;SDS011;16623;53.632;10.016;2023-06-10T06:04:19;12.30;;;2.72;;
29712;SDS011;16623;53.632;10.016;2023-06-10T06:06:45;11.55;;;2.72;;
29712;SDS011;16623;53.632;10.016;2023-06-10T06:09:10;10.73;;;3.03;;
29712;SDS011;16623;53.632;10.016;2023-06-10T06:11:35;9.43;;;2.00;;
29712;SDS011;16623;53.632;10.016;2023-06-10T06:14:01;11.00;;;2.17;;
29712;SDS011;16623;53.632;10.016;2023-06-10T06:16:26;11.50;;;2.97;;
29712;SDS011;16623;53.632;10.016;2023-06-10T06:18:52;6.63;;;2.72;;
29712;SDS011;16623;53.632;10.016;2023-06-10T06:21:18;11.45;;;2.90;;
29712;SDS011;16623;53.632;10.016;2023-06-10T06:23:43;10.35;;;2.75;;
29712;SDS011;16623;53.632;10.016;2023-06-10T06:26:09;10.13;;;2.42;;
29712;SDS011;16623;53.632;10.016;2023-06-10T06:28:35;8.73;;;2.33;;
29712;SDS011;16623;53.632;10.016;2023-06-10T06:31:00;8.82;;;2.08;;
29712;SDS011;16623;53.632;10.016;2023-06-10T06:33:26;5.40;;;2.28;;
29712;SDS011;16623;53.632;10.016;2023-06-10T06:35:52;7.30;;;2.40;;
29712;SDS011;16623;53.632;10.016;2023-06-10T06:38:17;9.23;;;2.20;;
29712;SDS011;16623;53.632;10.016;2023-06-10T06:40:43;8.00;;;2.65;;
29712;SDS011;16623;53.632;10.016;2023-06-10T06:43:08;7.65;;;2.38;;
29712;SDS011;16623;53.632;10.016;2023-06-10T06:45:37;7.85;;;2.53;;
29712;SDS011;16623;53.632;10.016;2023-06-10T06:48:03;8.90;;;2.75;;
29712;SDS011;16623;53.632;10.016;2023-06-10T06:50:30;7.70;;;2.50;;
29712;SDS011;16623;53.632;10.016;2023-06-10T06:52:56;9.80;;;2.40;;
29712;SDS011;16623;53.632;10.016;2023-06-10T06:55:22;9.63;;;3.17;;
29712;SDS011;16623;53.632;10.016;2023-06-10T06:57:48;4.88;;;2.05;;
29712;SDS011;16623;53.632;10.016;2023-06-10T07:00:13;11.45;;;2.97;;
29712;SDS011;16623;53.632;10.016;2023-06-10T07:02:39;10.63;;;2.42;;
29712;SDS011;16623;53.632;10.016;2023-06-10T07:05:06;12.23;;;3.00;;
29712;SDS011;16623;53.632;10.016;2023-06-10T07:07:32;10.02;;;2.53;;
29712;SDS011;16623;53.632;10.016;2023-06-10T07:09:57;8.57;;;2.85;;
29712;SDS011;16623;53.632;10.016;2023-06-10T07:12:23;11.20;;;2.65;;
29712;SDS011;16623;53.632;10.016;2023-06-10T07:14:51;11.07;;;2.90;;
29712;SDS011;16623;53.632;10.016;2023-06-10T07:17:17;8.27;;;2.67;;
29712;SDS011;16623;53.632;10.016;2023-06-10T07:19:44;10.75;;;3.40;;
29712;SDS011;16623;53.632;10.016;2023-06-10T07:22:10;9.20;;;2.78;;
29712;SDS011;16623;53.632;10.016;2023-06-10T07:24:36;5.65;;;2.10;;
29712;SDS011;16623;53.632;10.016;2023-06-10T07:27:02;12.32;;;2.10;;
29712;SDS011;16623;53.632;10.016;2023-06-10T07:29:28;11.68;;;3.58;;
29712;SDS011;16623;53.632;10.016;2023-06-10T07:31:53;4.97;;;1.90;;
29712;SDS011;16623;53.632;10.016;2023-06-10T07:34:19;12.75;;;3.05;;
29712;SDS011;16623;53.632;10.016;2023-06-10T07:36:44;11.57;;;2.92;;
29712;SDS011;16623;53.632;10.016;2023-06-10T07:39:10;9.65;;;2.08;;
29712;SDS011;16623;53.632;10.016;2023-06-10T07:41:35;10.52;;;2.83;;
29712;SDS011;16623;53.632;10.016;2023-06-10T07:44:07;8.70;;;2.53;;
29712;SDS011;16623;53.632;10.016;2023-06-10T07:46:41;7.93;;;2.40;;
29712;SDS011;16623;53.632;10.016;2023-06-10T07:49:07;9.55;;;2.47;;
29712;SDS011;16623;53.632;10.016;2023-06-10T07:51:32;10.05;;;2.55;;
29712;SDS011;16623;53.632;10.016;2023-06-10T07:53:58;6.80;;;2.58;;
29712;SDS011;16623;53.632;10.016;2023-06-10T07:56:26;8.55;;;2.75;;
29712;SDS011;16623;53.632;10.016;2023-06-10T07:58:53;11.18;;;3.03;;
29712;SDS011;16623;53.632;10.016;2023-06-10T08:01:19;7.18;;;2.33;;
29712;SDS011;16623;53.632;10.016;2023-06-10T08:03:44;11.07;;;2.83;;
29712;SDS011;16623;53.632;10.016;2023-06-10T08:06:15;11.68;;;3.28;;
29712;SDS011;16623;53.632;10.016;2023-06-10T08:08:42;12.18;;;2.67;;
29712;SDS011;16623;53.632;10.016;2023-06-10T08:11:10;7.07;;;2.25;;
29712;SDS011;16623;53.632;10.016;2023-06-10T08:13:36;8.73;;;2.72;;
29712;SDS011;16623;53.632;10.016;2023-06-10T08:16:01;5.43;;;2.45;;
29712;SDS011;16623;53.632;10.016;2023-06-10T08:18:28;7.22;;;2.53;;
29712;SDS011;16623;53.632;10.016;2023-06-10T08:20:53;13.55;;;3.17;;
29712;SDS011;16623;53.632;10.016;2023-06-10T08:23:22;13.25;;;2.85;;
29712;SDS011;16623;53.632;10.016;2023-06-10T08:25:48;11.55;;;2.83;;
29712;SDS011;16623;53.632;10.016;2023-06-10T08:28:14;14.48;;;3.13;;
29712;SDS011;16623;53.632;10.016;2023-06-10T08:30:39;8.68;;;2.80;;
29712;SDS011;16623;53.632;10.016;2023-06-10T08:33:05;12.50;;;3.22;;
29712;SDS011;16623;53.632;10.016;2023-06-10T08:35:34;8.45;;;3.00;;
29712;SDS011;16623;53.632;10.016;2023-06-10T08:37:59;10.30;;;3.38;;
29712;SDS011;16623;53.632;10.016;2023-06-10T08:40:25;10.88;;;2.90;;
29712;SDS011;16623;53.632;10.016;2023-06-10T08:43:14;7.18;;;2.47;;
29712;SDS011;16623;53.632;10.016;2023-06-10T08:45:47;6.40;;;2.58;;
29712;SDS011;16623;53.632;10.016;2023-06-10T08:48:14;7.07;;;2.60;;
29712;SDS011;16623;53.632;10.016;2023-06-10T08:50:42;6.82;;;2.05;;
29712;SDS011;16623;53.632;10.016;2023-06-10T08:53:08;9.32;;;2.92;;
29712;SDS011;16623;53.632;10.016;2023-06-10T08:55:40;11.13;;;3.33;;
29712;SDS011;16623;53.632;10.016;2023-06-10T08:58:07;9.77;;;3.42;;
29712;SDS011;16623;53.632;10.016;2023-06-10T09:00:32;10.68;;;3.35;;
29712;SDS011;16623;53.632;10.016;2023-06-10T09:03:00;10.75;;;2.33;;
29712;SDS011;16623;53.632;10.016;2023-06-10T09:05:27;10.02;;;3.50;;
29712;SDS011;16623;53.632;10.016;2023-06-10T09:08:03;10.02;;;3.30;;
29712;SDS011;16623;53.632;10.016;2023-06-10T09:10:30;12.05;;;3.17;;
29712;SDS011;16623;53.632;10.016;2023-06-10T09:12:57;10.15;;;3.33;;
29712;SDS011;16623;53.632;10.016;2023-06-10T09:15:22;13.40;;;3.58;;
29712;SDS011;16623;53.632;10.016;2023-06-10T09:17:48;8.30;;;2.50;;
29712;SDS011;16623;53.632;10.016;2023-06-10T09:20:17;12.82;;;2.70;;
29712;SDS011;16623;53.632;10.016;2023-06-10T09:22:43;10.25;;;3.35;;
29712;SDS011;16623;53.632;10.016;2023-06-10T09:25:12;10.65;;;3.15;;
29712;SDS011;16623;53.632;10.016;2023-06-10T09:27:48;12.85;;;3.55;;
29712;SDS011;16623;53.632;10.016;2023-06-10T09:30:34;15.07;;;2.92;;
29712;SDS011;16623;53.632;10.016;2023-06-10T09:33:00;12.02;;;3.08;;
29712;SDS011;16623;53.632;10.016;2023-06-10T09:35:28;12.48;;;3.42;;
29712;SDS011;16623;53.632;10.016;2023-06-10T09:37:56;10.20;;;3.38;;
29712;SDS011;16623;53.632;10.016;2023-06-10T09:40:23;8.85;;;2.85;;
29712;SDS011;16623;53.632;10.016;2023-06-10T09:42:58;13.27;;;3.10;;
29712;SDS011;16623;53.632;10.016;2023-06-10T09:45:31;12.05;;;3.65;;
29712;SDS011;16623;53.632;10.016;2023-06-10T09:47:57;9.50;;;3.08;;
29712;SDS011;16623;53.632;10.016;2023-06-10T09:50:22;12.63;;;3.47;;
29712;SDS011;16623;53.632;10.016;2023-06-10T09:52:49;11.05;;;3.50;;
29712;SDS011;16623;53.632;10.016;2023-06-10T09:55:16;15.60;;;3.30;;
29712;SDS011;16623;53.632;10.016;2023-06-10T09:57:42;7.75;;;4.20;;
29712;SDS011;16623;53.632;10.016;2023-06-10T10:00:12;9.02;;;3.10;;
29712;SDS011;16623;53.632;10.016;2023-06-10T10:02:51;7.07;;;3.30;;
29712;SDS011;16623;53.632;10.016;2023-06-10T10:05:19;12.73;;;3.75;;
29712;SDS011;16623;53.632;10.016;2023-06-10T10:07:45;14.15;;;3.80;;
29712;SDS011;16623;53.632;10.016;2023-06-10T10:10:11;18.88;;;4.38;;
29712;SDS011;16623;53.632;10.016;2023-06-10T10:12:39;10.68;;;3.40;;
29712;SDS011;16623;53.632;10.016;2023-06-10T10:15:09;11.38;;;4.72;;
29712;SDS011;16623;53.632;10.016;2023-06-10T10:17:37;9.35;;;3.28;;
29712;SDS011;16623;53.632;10.016;2023-06-10T10:20:12;9.80;;;2.97;;
29712;SDS011;16623;53.632;10.016;2023-06-10T10:22:39;10.63;;;2.97;;
29712;SDS011;16623;53.632;10.016;2023-06-10T10:25:10;8.75;;;3.67;;
29712;SDS011;16623;53.632;10.016;2023-06-10T10:30:11;13.65;;;4.03;;
29712;SDS011;16623;53.632;10.016;2023-06-10T10:35:51;12.77;;;3.47;;
29712;SDS011;16623;53.632;10.016;2023-06-10T10:38:18;10.85;;;3.85;;
29712;SDS011;16623;53.632;10.016;2023-06-10T10:40:44;9.23;;;3.70;;
29712;SDS011;16623;53.632;10.016;2023-06-10T10:43:11;13.27;;;3.45;;
29712;SDS011;16623;53.632;10.016;2023-06-10T10:45:38;7.90;;;3.25;;
29712;SDS011;16623;53.632;10.016;2023-06-10T10:48:16;10.75;;;3.70;;
29712;SDS011;16623;53.632;10.016;2023-06-10T10:51:02;12.88;;;3.78;;
29712;SDS011;16623;53.632;10.016;2023-06-10T10:53:31;18.08;;;3.58;;
29712;SDS011;16623;53.632;10.016;2023-06-10T10:56:15;10.52;;;3.90;;
29712;SDS011;16623;53.632;10.016;2023-06-10T10:59:07;13.45;;;3.75;;
29712;SDS011;16623;53.632;10.016;2023-06-10T11:01:41;15.88;;;3.70;;
29712;SDS011;16623;53.632;10.016;2023-06-10T11:04:11;7.47;;;3.60;;
29712;SDS011;16623;53.632;10.016;2023-06-10T11:06:37;8.20;;;3.38;;
29712;SDS011;16623;53.632;10.016;2023-06-10T11:09:25;11.77;;;4.07;;
29712;SDS011;16623;53.632;10.016;2023-06-10T11:11:58;11.32;;;3.50;;
29712;SDS011;16623;53.632;10.016;2023-06-10T11:14:27;11.68;;;4.47;;
29712;SDS011;16623;53.632;10.016;2023-06-10T11:16:56;7.75;;;3.45;;
29712;SDS011;16623;53.632;10.016;2023-06-10T11:19:35;13.52;;;4.00;;
29712;SDS011;16623;53.632;10.016;2023-06-10T11:22:08;8.13;;;3.15;;
29712;SDS011;16623;53.632;10.016;2023-06-10T11:24:40;10.95;;;3.17;;
29712;SDS011;16623;53.632;10.016;2023-06-10T11:27:18;14.65;;;3.30;;
29712;SDS011;16623;53.632;10.016;2023-06-10T11:32:33;7.00;;;3.65;;
29712;SDS011;16623;53.632;10.016;2023-06-10T11:35:05;10.73;;;3.33;;
29712;SDS011;16623;53.632;10.016;2023-06-10T11:37:32;12.88;;;3.63;;
29712;SDS011;16623;53.632;10.016;2023-06-10T11:39:58;13.35;;;4.25;;
29712;SDS011;16623;53.632;10.016;2023-06-10T11:42:25;12.73;;;3.90;;
29712;SDS011;16623;53.632;10.016;2023-06-10T11:44:51;10.73;;;4.38;;
29712;SDS011;16623;53.632;10.016;2023-06-10T11:47:18;13.07;;;4.25;;
29712;SDS011;16623;53.632;10.016;2023-06-10T11:49:45;11.63;;;3.50;;
29712;SDS011;16623;53.632;10.016;2023-06-10T11:52:11;10.07;;;4.28;;
29712;SDS011;16623;53.632;10.016;2023-06-10T11:54:38;16.25;;;4.22;;
29712;SDS011;16623;53.632;10.016;2023-06-10T11:57:07;11.02;;;3.92;;
29712;SDS011;16623;53.632;10.016;2023-06-10T11:59:33;13.63;;;4.25;;
29712;SDS011;16623;53.632;10.016;2023-06-10T12:01:59;9.88;;;3.78;;
29712;SDS011;16623;53.632;10.016;2023-06-10T12:04:24;13.40;;;3.72;;
29712;SDS011;16623;53.632;10.016;2023-06-10T12:06:51;16.77;;;4.75;;
29712;SDS011;16623;53.632;10.016;2023-06-10T12:09:28;11.40;;;4.28;;
29712;SDS011;16623;53.632;10.016;2023-06-10T12:11:58;9.60;;;3.58;;
29712;SDS011;16623;53.632;10.016;2023-06-10T12:17:20;6.00;;;3.00;;
29712;SDS011;16623;53.632;10.016;2023-06-10T12:19:46;10.02;;;3.42;;
29712;SDS011;16623;53.632;10.016;2023-06-10T12:22:13;9.68;;;3.38;;
29712;SDS011;16623;53.632;10.016;2023-06-10T12:27:28;8.38;;;3.83;;
29712;SDS011;16623;53.632;10.016;2023-06-10T12:29:57;8.80;;;4.38;;
29712;SDS011;16623;53.632;10.016;2023-06-10T12:35:10;11.70;;;3.55;;
29712;SDS011;16623;53.632;10.016;2023-06-10T12:37:39;15.00;;;4.05;;
29712;SDS011;16623;53.632;10.016;2023-06-10T12:40:06;13.90;;;4.45;;
29712;SDS011;16623;53.632;10.016;2023-06-10T12:42:34;15.25;;;3.20;;
29712;SDS011;16623;53.632;10.016;2023-06-10T12:45:02;8.82;;;3.78;;
29712;SDS011;16623;53.632;10.016;2023-06-10T12:47:35;9.98;;;4.10;;
29712;SDS011;16623;53.632;10.016;2023-06-10T12:52:29;12.35;;;4.28;;
29712;SDS011;16623;53.632;10.016;2023-06-10T12:54:55;7.65;;;3.67;;
29712;SDS011;16623;53.632;10.016;2023-06-10T12:57:26;13.15;;;3.38;;
29712;SDS011;16623;53.632;10.016;2023-06-10T12:59:52;9.00;;;3.65;;
29712;SDS011;16623;53.632;10.016;2023-06-10T13:02:20;9.68;;;3.80;;
29712;SDS011;16623;53.632;10.016;2023-06-10T13:04:48;14.38;;;3.78;;
29712;SDS011;16623;53.632;10.016;2023-06-10T13:07:15;10.02;;;3.53;;
29712;SDS011;16623;53.632;10.016;2023-06-10T13:09:41;15.35;;;4.30;;
29712;SDS011;16623;53.632;10.016;2023-06-10T13:12:07;10.73;;;3.67;;
29712;SDS011;16623;53.632;10.016;2023-06-10T13:14:42;15.98;;;3.63;;
29712;SDS011;16623;53.632;10.016;2023-06-10T13:17:08;9.40;;;4.00;;
29712;SDS011;16623;53.632;10.016;2023-06-10T13:19:33;14.55;;;3.92;;
29712;SDS011;16623;53.632;10.016;2023-06-10T13:21:59;11.70;;;3.55;;
29712;SDS011;16623;53.632;10.016;2023-06-10T13:24:24;18.35;;;4.68;;
29712;SDS011;16623;53.632;10.016;2023-06-10T13:26:51;10.00;;;2.83;;
29712;SDS011;16623;53.632;10.016;2023-06-10T13:29:17;11.68;;;4.13;;
29712;SDS011;16623;53.632;10.016;2023-06-10T13:31:42;7.13;;;2.90;;
29712;SDS011;16623;53.632;10.016;2023-06-10T13:34:08;11.70;;;3.78;;
29712;SDS011;16623;53.632;10.016;2023-06-10T13:36:33;10.90;;;3.50;;
29712;SDS011;16623;53.632;10.016;2023-06-10T13:39:08;7.75;;;3.15;;
29712;SDS011;16623;53.632;10.016;2023-06-10T13:42:02;10.20;;;3.72;;
29712;SDS011;16623;53.632;10.016;2023-06-10T13:44:28;8.65;;;2.90;;
29712;SDS011;16623;53.632;10.016;2023-06-10T13:46:55;10.98;;;3.80;;
29712;SDS011;16623;53.632;10.016;2023-06-10T13:49:21;11.43;;;2.78;;
29712;SDS011;16623;53.632;10.016;2023-06-10T13:51:47;8.90;;;3.28;;
29712;SDS011;16623;53.632;10.016;2023-06-10T13:54:13;8.20;;;2.78;;
29712;SDS011;16623;53.632;10.016;2023-06-10T13:56:40;6.60;;;2.90;;
29712;SDS011;16623;53.632;10.016;2023-06-10T13:59:06;10.30;;;3.45;;
29712;SDS011;16623;53.632;10.016;2023-06-10T14:01:31;10.02;;;3.00;;
29712;SDS011;16623;53.632;10.016;2023-06-10T14:03:57;14.90;;;3.58;;
29712;SDS011;16623;53.632;10.016;2023-06-10T14:06:22;10.45;;;3.83;;
29712;SDS011;16623;53.632;10.016;2023-06-10T14:08:48;9.25;;;2.88;;
29712;SDS011;16623;53.632;10.016;2023-06-10T14:11:13;9.60;;;3.42;;
29712;SDS011;16623;53.632;10.016;2023-06-10T14:13:39;10.13;;;3.63;;
29712;SDS011;16623;53.632;10.016;2023-06-10T14:16:05;10.10;;;3.53;;
29712;SDS011;16623;53.632;10.016;2023-06-10T14:18:31;12.23;;;3.40;;
29712;SDS011;16623;53.632;10.016;2023-06-10T14:20:56;10.70;;;3.08;;
29712;SDS011;16623;53.632;10.016;2023-06-10T14:23:22;9.10;;;3.15;;
29712;SDS011;16623;53.632;10.016;2023-06-10T14:25:49;9.57;;;2.80;;
29712;SDS011;16623;53.632;10.016;2023-06-10T14:28:15;12.32;;;4.40;;
29712;SDS011;16623;53.632;10.016;2023-06-10T14:30:40;10.43;;;3.60;;
29712;SDS011;16623;53.632;10.016;2023-06-10T14:33:06;17.67;;;4.25;;
29712;SDS011;16623;53.632;10.016;2023-06-10T14:35:31;11.00;;;2.83;;
29712;SDS011;16623;53.632;10.016;2023-06-10T14:37:57;14.48;;;3.92;;
29712;SDS011;16623;53.632;10.016;2023-06-10T14:40:22;10.80;;;3.58;;
29712;SDS011;16623;53.632;10.016;2023-06-10T14:42:50;24.77;;;4.68;;
29712;SDS011;16623;53.632;10.016;2023-06-10T14:45:15;6.05;;;3.05;;
29712;SDS011;16623;53.632;10.016;2023-06-10T14:47:41;9.52;;;3.25;;
29712;SDS011;16623;53.632;10.016;2023-06-10T14:50:06;15.38;;;3.42;;